首页
METAR-TAF:

METAR-TAF

机场 :

法兰克福-哈恩机场

Hahn, 德国

纬度: 49-57N, 经度: 007-16E, 海拔: 491米

当前天气观测

该预报发布于43分钟前的18:20 UTC
风速11节,风向西转西南
温度 4°C
湿度 87%
气压 1022 hPa
能见度10公里或以上
少量云层高于2000英尺

METAR: EDFH 181820Z 24011KT 9999 FEW020 04/02 Q1022

时间: 20:03 (19:03 UTC)

预报

该预报发布于2小时和3分钟前的17:00 UTC
预报有效从18日的 18点(UTC)到 19日的 18点(UTC)
风速10节,风向南转西南,有时为20节阵风
能见度10公里或以上
多云层高于4000英尺
成为
从 19日的 00点(UTC)到 19日的 02点(UTC)
风速15节,风向西转西南,有时为25节阵风
多云层高于1000英尺
短暂存在
从 19日的 02点(UTC)到 19日的 05点(UTC)
风速20节,风向西,有时为30节阵风
多云层高于300英尺
阴天层高于800英尺, 积雨云.
阵雨
成为
从 19日的 05点(UTC)到 19日的 07点(UTC)
风速15节,风向西转西北,有时为25节阵风
多云层高于1500英尺
几率 30% :
短暂存在
从 19日的 06点(UTC)到 19日的 10点(UTC)
风速20节,风向西转西北,有时为30节阵风
多云层高于800英尺, 积雨云.
阵雨

TAF: EDFH 181700Z 1818/1918 21010G20KT 9999 BKN040 BECMG 1900/1902 24015G25KT BKN010 TEMPO 1902/1905 26020G30KT SHRA BKN003 OVC008CB BECMG 1905/1907 30015G25KT BKN015 PROB30 TEMPO 1906/1910 30020G30KT SHRA BKN008CB

超过4000个机场的气象观测和天气预报(METAR&TAF报告)。

可查询的气象台以黄色和红色小点在地图上表示。

将鼠标移到小点上方,可查看气象台名称。

然后点击查看天气观测和预报。

如需切换地图:点击带黑十字的绿色按钮放大地图;点击带横线的绿色按钮缩小地图;或者点击绿色箭头查看邻近地区的地图。


METAR-TAF: